Thornton Dale, United Kingdom
Current Conditions -  °F | °C
As of 11:50 PM on Monday 22 Dec 2014 (Local Time) from EGXU Reporting Station
Broken Clouds Broken Clouds  
Wind Chill: 54°   Ceiling: 1800
Heat Index: 54°   Visibility: 6mi
Dew Point: 50°   Wind: 24mph
Humidity: 88%   Direction: 250°WSW
Pressure: 29.77"   Gusts: NA
Location:  54.23°N, 0.72°W
Report Text: EGXU 222350Z AUTO 25021KT 9999 // BKN018/// SCT032/// 12/10 Q1008
Loading
Personal Weather Stations






























Interactive Weather Map New forecast layout! Learn more

10-Day Weather Forecast

Advertisements
Track Severe Weather on mobile